createdAt,value
2018-06-04T00:01:50.219Z,96281.70
2018-06-04T00:04:17.590Z,96279.72
2018-06-04T00:06:45.002Z,96272.93
2018-06-04T00:09:12.284Z,96270.77
2018-06-04T00:11:39.537Z,96266.14
2018-06-04T00:14:06.883Z,96263.14
2018-06-04T00:16:34.229Z,96206.19
2018-06-04T00:19:01.575Z,96253.90
2018-06-04T00:21:28.965Z,96253.16
2018-06-04T00:23:56.260Z,96254.84
2018-06-04T00:26:23.651Z,96254.18
2018-06-04T00:28:51.289Z,96250.22
2018-06-04T00:31:20.220Z,96249.75
2018-06-04T00:33:47.567Z,96251.73
2018-06-04T00:36:14.953Z,96251.22
2018-06-04T00:38:42.202Z,96246.59
2018-06-04T00:41:10.205Z,96247.58
2018-06-04T00:43:37.395Z,96247.36
2018-06-04T00:46:04.872Z,96239.59
2018-06-04T00:48:32.213Z,96243.91
2018-06-04T00:50:59.612Z,96243.31
2018-06-04T00:53:26.963Z,96239.50
2018-06-04T00:56:06.012Z,96231.45
2018-06-04T00:58:33.396Z,96236.44
2018-06-04T01:01:00.700Z,96229.80
2018-06-04T01:03:28.006Z,96222.31
2018-06-04T01:05:55.280Z,96219.38
2018-06-04T01:08:22.596Z,96219.70
2018-06-04T01:10:49.826Z,96216.74
2018-06-04T01:13:17.190Z,96218.35
2018-06-04T01:15:44.578Z,96214.72
2018-06-04T01:18:11.862Z,96221.92
2018-06-04T01:20:39.176Z,96181.13
2018-06-04T01:23:06.675Z,96217.20
2018-06-04T01:25:34.077Z,96220.17
2018-06-04T01:28:01.354Z,96215.88
2018-06-04T01:30:28.642Z,96218.52
2018-06-04T01:32:55.944Z,96214.46
2018-06-04T01:35:23.340Z,96208.20
2018-06-04T01:37:50.665Z,96211.50
2018-06-04T01:40:17.989Z,96203.07
2018-06-04T01:42:45.290Z,96210.48
2018-06-04T01:45:12.720Z,96205.31
2018-06-04T01:49:59.692Z,96199.85
2018-06-04T01:52:27.019Z,96201.22
2018-06-04T01:54:54.409Z,96199.94
2018-06-04T01:57:21.796Z,96199.11
2018-06-04T01:59:49.138Z,96197.27
2018-06-04T02:02:16.489Z,96199.05
2018-06-04T02:04:43.869Z,96197.48
2018-06-04T02:07:11.198Z,96192.84
2018-06-04T02:09:39.241Z,96195.80
2018-06-04T02:12:06.510Z,96192.44
2018-06-04T02:14:33.846Z,96186.50
2018-06-04T02:17:01.199Z,96189.59
2018-06-04T02:19:28.555Z,96185.01
2018-06-04T02:21:55.830Z,96186.05
2018-06-04T02:24:23.234Z,96181.83
2018-06-04T02:26:50.597Z,96175.50
2018-06-04T02:29:17.868Z,96178.42
2018-06-04T02:31:45.114Z,96175.98
2018-06-04T02:34:12.401Z,96187.05
2018-06-04T02:36:39.738Z,96178.41
2018-06-04T02:39:07.403Z,96177.03
2018-06-04T02:41:34.656Z,96176.10
2018-06-04T02:44:01.952Z,96149.23
2018-06-04T02:46:29.325Z,96168.06
2018-06-04T02:48:56.622Z,96163.58
2018-06-04T02:51:23.949Z,96162.55
2018-06-04T02:53:51.231Z,96161.59
2018-06-04T02:56:18.619Z,96169.19
2018-06-04T02:58:45.962Z,96163.19
2018-06-04T03:01:13.222Z,96163.84
2018-06-04T03:03:40.551Z,96169.06
2018-06-04T03:06:07.897Z,96165.83
2018-06-04T03:08:35.169Z,96168.52
2018-06-04T03:11:02.506Z,96172.22
2018-06-04T03:13:29.898Z,96173.99
2018-06-04T03:15:57.172Z,96170.43
2018-06-04T03:18:24.503Z,96172.48
2018-06-04T03:20:51.791Z,96171.62
2018-06-04T03:23:19.143Z,96166.94
2018-06-04T03:25:46.479Z,96166.27
2018-06-04T03:28:13.744Z,96167.91
2018-06-04T03:30:41.126Z,96168.91
2018-06-04T03:33:08.474Z,96166.59
2018-06-04T03:35:35.841Z,96171.52
2018-06-04T03:40:55.976Z,96168.34
2018-06-04T03:43:23.265Z,96166.00
2018-06-04T03:45:50.497Z,96170.28
2018-06-04T03:48:18.665Z,96165.88
2018-06-04T03:50:45.952Z,96172.94
2018-06-04T03:53:13.275Z,96168.84
2018-06-04T03:55:40.499Z,96174.64
2018-06-04T03:58:07.817Z,96174.30
2018-06-04T04:00:35.081Z,96175.84
2018-06-04T04:03:02.397Z,96175.98
2018-06-04T04:05:29.818Z,96181.09
2018-06-04T04:07:57.343Z,96174.64
2018-06-04T04:10:24.659Z,96172.39
2018-06-04T04:12:52.036Z,96174.30
2018-06-04T04:15:19.338Z,96175.03
2018-06-04T04:17:46.702Z,96175.03
2018-06-04T04:20:13.995Z,96181.61
2018-06-04T04:23:04.243Z,96181.70
2018-06-04T04:25:31.583Z,96187.89
2018-06-04T04:27:58.905Z,96181.87
2018-06-04T04:30:26.224Z,96183.50
2018-06-04T04:32:53.543Z,96186.78
2018-06-04T04:35:20.870Z,96184.06
2018-06-04T04:37:48.281Z,96177.61
2018-06-04T04:40:15.579Z,96182.02
2018-06-04T04:42:42.892Z,96182.30
2018-06-04T04:45:10.189Z,96182.24
2018-06-04T04:47:37.470Z,96183.30
2018-06-04T04:50:04.788Z,96181.05
2018-06-04T04:52:32.704Z,96181.77
2018-06-04T04:55:00.067Z,96181.05
2018-06-04T04:57:27.369Z,96187.17
2018-06-04T04:59:54.776Z,96182.96
2018-06-04T05:02:22.142Z,96186.62
2018-06-04T05:04:49.470Z,96187.86
2018-06-04T05:08:18.755Z,96189.61
2018-06-04T05:10:46.006Z,96183.76
2018-06-04T05:13:13.280Z,96181.74
2018-06-04T05:15:40.633Z,96181.92
2018-06-04T05:18:07.912Z,96179.65
2018-06-04T05:20:35.254Z,96175.72
2018-06-04T05:23:02.510Z,96173.26
2018-06-04T05:25:29.946Z,96173.80
2018-06-04T05:27:57.315Z,96174.17
2018-06-04T05:30:24.581Z,96173.17
2018-06-04T05:32:51.894Z,96169.41
2018-06-04T05:35:19.186Z,96169.95
2018-06-04T05:37:46.511Z,96171.92
2018-06-04T05:40:13.836Z,96167.19
2018-06-04T05:42:41.060Z,96172.81
2018-06-04T05:45:08.321Z,96173.63
2018-06-04T05:47:35.657Z,96170.31
2018-06-04T05:50:03.151Z,96177.94
2018-06-04T05:52:30.430Z,96174.30
2018-06-04T05:54:57.780Z,96175.07
2018-06-04T05:57:25.085Z,96170.45
2018-06-04T05:59:52.361Z,96170.91
2018-06-04T06:02:19.705Z,96167.55
2018-06-04T06:04:47.045Z,96165.58
2018-06-04T06:07:14.472Z,96163.29
2018-06-04T06:09:41.779Z,96162.55
2018-06-04T06:12:09.144Z,96163.47
2018-06-04T06:14:36.445Z,96156.58
2018-06-04T06:17:03.681Z,96162.12
2018-06-04T06:19:30.982Z,96151.48
2018-06-04T06:21:58.220Z,96157.80
2018-06-04T06:24:25.513Z,96154.85
2018-06-04T06:26:52.883Z,96153.52
2018-06-04T06:29:20.187Z,96148.88
2018-06-04T06:31:47.543Z,96147.57
2018-06-04T06:34:14.780Z,96144.89
2018-06-04T06:36:42.141Z,96138.17
2018-06-04T06:39:09.463Z,96131.70
2018-06-04T06:41:37.053Z,96128.84
2018-06-04T06:44:04.420Z,96124.50
2018-06-04T06:46:31.642Z,96119.66
2018-06-04T06:48:58.970Z,96120.64
2018-06-04T06:51:26.340Z,96117.53
2018-06-04T06:53:53.726Z,96122.59
2018-06-04T06:56:20.954Z,96124.55
2018-06-04T06:58:48.342Z,96119.95
2018-06-04T07:01:15.786Z,96124.45
2018-06-04T07:03:43.120Z,96126.92
2018-06-04T07:06:10.416Z,96125.27
2018-06-04T07:08:37.780Z,96117.52
2018-06-04T07:11:05.173Z,96116.77
2018-06-04T07:13:32.431Z,96118.17
2018-06-04T07:15:59.783Z,96122.23
2018-06-04T07:18:27.036Z,96122.95
2018-06-04T07:20:54.278Z,96121.83
2018-06-04T07:23:21.643Z,96116.34
2018-06-04T07:25:48.853Z,96116.25
2018-06-04T07:28:16.261Z,96119.42
2018-06-04T07:30:43.815Z,96113.98
2018-06-04T07:33:11.221Z,96118.03
2018-06-04T07:35:39.009Z,96117.81
2018-06-04T07:38:06.290Z,96117.12
2018-06-04T07:40:33.610Z,96120.33
2018-06-04T07:43:00.899Z,96121.85
2018-06-04T07:45:28.251Z,96115.14
2018-06-04T07:47:55.610Z,96123.63
2018-06-04T07:50:22.909Z,96122.23
2018-06-04T07:52:50.230Z,96121.24
2018-06-04T07:55:17.604Z,96118.69
2018-06-04T07:57:44.931Z,96117.36
2018-06-04T08:00:12.255Z,96120.15
2018-06-04T08:02:39.579Z,96120.50
2018-06-04T08:05:06.809Z,96114.30
2018-06-04T08:07:34.134Z,96114.11
2018-06-04T08:10:01.585Z,96105.14
2018-06-04T08:12:28.877Z,96103.03
2018-06-04T08:15:05.980Z,96102.87
2018-06-04T08:17:33.257Z,96108.25
2018-06-04T08:20:00.550Z,96112.66
2018-06-04T08:22:27.933Z,96111.25
2018-06-04T08:24:55.184Z,96105.33
2018-06-04T08:27:22.513Z,96108.25
2018-06-04T08:29:49.835Z,96106.00
2018-06-04T08:32:17.068Z,96106.51
2018-06-04T08:34:44.356Z,96108.67
2018-06-04T08:37:11.656Z,96104.10
2018-06-04T08:39:39.009Z,96105.83
2018-06-04T08:42:06.290Z,96098.59
2018-06-04T08:44:33.589Z,96102.40
2018-06-04T08:47:00.932Z,96106.86
2018-06-04T08:49:28.247Z,96107.63
2018-06-04T08:51:55.642Z,96097.38
2018-06-04T08:54:22.939Z,96096.95
2018-06-04T08:56:50.150Z,96097.53
2018-06-04T08:59:17.683Z,96099.53
2018-06-04T09:01:45.585Z,96102.14
2018-06-04T09:04:12.981Z,96099.61
2018-06-04T09:06:40.383Z,96095.48
2018-06-04T09:09:07.772Z,96098.48
2018-06-04T09:11:35.056Z,96096.81
2018-06-04T09:14:02.445Z,96097.56
2018-06-04T09:16:29.688Z,96089.95
2018-06-04T09:18:57.021Z,96096.56
2018-06-04T09:21:24.306Z,96095.33
2018-06-04T09:23:51.606Z,96100.58
2018-06-04T09:26:19.147Z,96102.30
2018-06-04T09:28:46.368Z,96100.45
2018-06-04T09:31:13.663Z,96095.95
2018-06-04T09:33:41.001Z,96062.06
2018-06-04T09:36:08.244Z,96091.23
2018-06-04T09:38:35.598Z,96097.38
2018-06-04T09:41:02.900Z,96087.59
2018-06-04T09:43:30.280Z,96091.14
2018-06-04T09:45:57.593Z,96095.33
2018-06-04T09:48:24.867Z,96092.45
2018-06-04T09:50:52.170Z,96096.70
2018-06-04T09:53:19.444Z,96092.47
2018-06-04T09:55:46.822Z,96088.36
2018-06-04T09:58:14.054Z,96092.94
2018-06-04T10:00:41.464Z,96084.59
2018-06-04T10:03:08.782Z,96092.39
2018-06-04T10:05:36.145Z,96084.53
2018-06-04T10:08:03.479Z,96074.48
2018-06-04T10:10:30.783Z,96070.66
2018-06-04T10:12:58.092Z,96077.72
2018-06-04T10:15:25.498Z,96074.91
2018-06-04T10:17:52.863Z,96078.11
2018-06-04T10:20:20.294Z,96072.43
2018-06-04T10:22:47.595Z,96069.77
2018-06-04T10:25:14.938Z,96075.98
2018-06-04T10:27:42.185Z,96064.23
2018-06-04T10:30:09.717Z,96060.44
2018-06-04T10:32:37.147Z,96056.84
2018-06-04T10:35:04.512Z,96064.91
2018-06-04T10:37:31.888Z,96045.61
2018-06-04T10:39:59.240Z,96048.07
2018-06-04T10:42:26.591Z,96056.80
2018-06-04T10:44:54.005Z,96055.25
2018-06-04T10:47:21.268Z,96054.78
2018-06-04T10:49:48.620Z,96053.11
2018-06-04T10:52:15.922Z,96051.69
2018-06-04T10:54:43.377Z,96042.36
2018-06-04T10:57:10.735Z,96050.11
2018-06-04T10:59:38.070Z,96042.94
2018-06-04T11:02:05.447Z,96037.99
2018-06-04T11:04:32.729Z,96044.78
2018-06-04T11:07:00.122Z,96036.88
2018-06-04T11:09:27.495Z,96033.20
2018-06-04T11:11:54.709Z,96034.03
2018-06-04T11:14:22.001Z,96036.34
2018-06-04T11:16:49.274Z,96027.19
2018-06-04T11:19:16.648Z,96020.33
2018-06-04T11:21:43.979Z,96020.61
2018-06-04T11:24:11.505Z,96025.30
2018-06-04T11:26:38.821Z,96019.64
2018-06-04T11:29:06.122Z,96015.65
2018-06-04T11:31:33.461Z,96010.33
2018-06-04T11:34:00.772Z,96003.00
2018-06-04T11:36:28.181Z,96003.22
2018-06-04T11:38:55.502Z,96003.47
2018-06-04T11:41:22.831Z,95996.38
2018-06-04T11:43:50.242Z,95997.78
2018-06-04T11:46:17.508Z,95997.32
2018-06-04T11:48:44.801Z,95997.45
2018-06-04T11:51:12.172Z,95996.72
2018-06-04T11:53:39.536Z,96000.77
2018-06-04T11:56:06.814Z,96001.11
2018-06-04T11:58:34.134Z,96003.06
2018-06-04T12:01:01.453Z,95995.89
2018-06-04T12:03:28.732Z,95994.44
2018-06-04T12:05:56.027Z,95996.80
2018-06-04T12:08:23.461Z,96001.63
2018-06-04T12:10:50.736Z,95995.33
2018-06-04T12:13:18.052Z,95991.42
2018-06-04T12:15:45.372Z,95987.23
2018-06-04T12:18:12.719Z,95981.34
2018-06-04T12:20:40.013Z,95983.48
2018-06-04T12:23:07.429Z,95976.39
2018-06-04T12:25:34.765Z,95966.79
2018-06-04T12:28:02.138Z,95969.22
2018-06-04T12:30:29.486Z,95970.97
2018-06-04T12:32:56.817Z,95975.16
2018-06-04T12:35:24.106Z,95969.82
2018-06-04T12:37:51.415Z,95963.78
2018-06-04T12:40:18.674Z,95960.73
2018-06-04T12:42:46.036Z,95953.84
2018-06-04T12:45:13.392Z,95948.56
2018-06-04T12:47:40.642Z,95936.92
2018-06-04T12:50:07.944Z,95939.72
2018-06-04T12:52:35.247Z,95937.75
2018-06-04T12:55:02.548Z,95944.52
2018-06-04T12:57:29.925Z,95941.16
2018-06-04T12:59:57.295Z,95930.56
2018-06-04T13:02:24.577Z,95925.66
2018-06-04T13:04:51.959Z,95924.64
2018-06-04T13:07:19.265Z,95924.38
2018-06-04T13:09:46.596Z,95921.16
2018-06-04T13:12:14.001Z,95921.77
2018-06-04T13:14:41.502Z,95912.88
2018-06-04T13:17:08.822Z,95917.19
2018-06-04T13:19:36.104Z,95910.68
2018-06-04T13:22:03.428Z,95901.48
2018-06-04T13:24:30.812Z,95908.52
2018-06-04T13:26:58.180Z,95901.77
2018-06-04T13:29:25.610Z,95898.52
2018-06-04T13:31:52.886Z,95894.13
2018-06-04T13:34:20.227Z,95897.12
2018-06-04T13:36:47.629Z,95892.25
2018-06-04T13:39:14.987Z,95885.74
2018-06-04T13:41:42.300Z,95883.02
2018-06-04T13:44:09.665Z,95882.46
2018-06-04T13:46:37.005Z,95886.48
2018-06-04T13:49:04.388Z,95876.98
2018-06-04T13:51:31.871Z,95875.98
2018-06-04T13:53:59.203Z,95875.34
2018-06-04T13:56:26.523Z,95874.88
2018-06-04T13:58:53.769Z,95873.77
2018-06-04T14:01:21.079Z,95862.45
2018-06-04T14:03:48.446Z,95864.45
2018-06-04T14:06:15.748Z,95864.48
2018-06-04T14:08:43.047Z,95857.20
2018-06-04T14:11:10.367Z,95856.37
2018-06-04T14:13:37.603Z,95849.27
2018-06-04T14:16:05.047Z,95846.56
2018-06-04T14:18:32.488Z,95839.83
2018-06-04T14:20:59.842Z,95841.27
2018-06-04T14:23:27.251Z,95841.53
2018-06-04T14:25:54.573Z,95839.55
2018-06-04T14:28:21.887Z,95840.36
2018-06-04T14:30:49.189Z,95829.70
2018-06-04T14:33:16.481Z,95835.72
2018-06-04T14:35:43.790Z,95828.31
2018-06-04T14:38:11.013Z,95827.52
2018-06-04T14:40:38.451Z,95820.86
2018-06-04T14:44:08.499Z,95818.01
2018-06-04T14:46:35.745Z,95808.23
2018-06-04T14:49:03.055Z,95802.13
2018-06-04T14:51:30.417Z,95795.09
2018-06-04T14:53:57.745Z,95791.13
2018-06-04T14:56:25.004Z,95787.26
2018-06-04T14:58:52.336Z,95791.51
2018-06-04T15:01:19.674Z,95787.73
2018-06-04T15:03:47.045Z,95784.30
2018-06-04T15:06:14.327Z,95785.50
2018-06-04T15:08:41.691Z,95782.48
2018-06-04T15:11:08.953Z,95782.09
2018-06-04T15:13:36.198Z,95787.71
2018-06-04T15:16:03.560Z,95783.75
2018-06-04T15:18:30.852Z,95782.12
2018-06-04T15:20:58.206Z,95782.89
2018-06-04T15:23:25.591Z,95784.22
2018-06-04T15:25:52.968Z,95784.04
2018-06-04T15:28:20.383Z,95782.84
2018-06-04T15:30:47.718Z,95791.69
2018-06-04T15:33:15.086Z,95788.33
2018-06-04T15:35:42.363Z,95789.52
2018-06-04T15:38:09.765Z,95794.44
2018-06-04T15:40:37.161Z,95791.45
2018-06-04T15:43:04.576Z,95792.53
2018-06-04T15:45:31.793Z,95788.78
2018-06-04T15:47:59.107Z,95787.13
2018-06-04T15:50:26.304Z,95780.48
2018-06-04T15:52:53.574Z,95783.48
2018-06-04T15:55:20.935Z,95777.43
2018-06-04T15:57:48.288Z,95788.28
2018-06-04T16:00:15.604Z,95784.42
2018-06-04T16:02:42.924Z,95785.74
2018-06-04T16:05:10.236Z,95783.36
2018-06-04T16:07:37.641Z,95780.85
2018-06-04T16:10:04.985Z,95781.78
2018-06-04T16:12:32.318Z,95783.86
2018-06-04T16:15:02.923Z,95777.08
2018-06-04T16:17:30.224Z,95785.97
2018-06-04T16:19:57.629Z,95777.65
2018-06-04T16:22:24.918Z,95777.29
2018-06-04T16:24:52.216Z,95771.82
2018-06-04T16:27:19.626Z,95768.34
2018-06-04T16:29:46.970Z,95771.13
2018-06-04T16:32:14.425Z,95771.18
2018-06-04T16:34:41.772Z,95772.80
2018-06-04T16:37:09.075Z,95773.08
2018-06-04T16:39:36.416Z,95773.52
2018-06-04T16:42:03.728Z,95754.90
2018-06-04T16:44:31.066Z,95775.40
2018-06-04T16:46:58.374Z,95772.73
2018-06-04T16:49:25.679Z,95774.49
2018-06-04T16:51:53.040Z,95773.94
2018-06-04T16:54:20.416Z,95774.67
2018-06-04T16:56:47.699Z,95774.77
2018-06-04T16:59:15.022Z,95775.45
2018-06-04T17:01:42.358Z,95779.93
2018-06-04T17:04:09.659Z,95780.22
2018-06-04T17:06:36.969Z,95783.70
2018-06-04T17:09:06.115Z,95782.45
2018-06-04T17:11:33.330Z,95787.06
2018-06-04T17:14:00.620Z,95785.48
2018-06-04T17:16:27.879Z,95784.11
2018-06-04T17:18:55.234Z,95788.55
2018-06-04T17:21:23.154Z,95798.38
2018-06-04T17:23:50.391Z,95787.73
2018-06-04T17:26:17.649Z,95796.84
2018-06-04T17:28:44.939Z,95787.20
2018-06-04T17:31:12.244Z,95743.71
2018-06-04T17:33:39.697Z,95788.29
2018-06-04T17:36:06.980Z,95783.59
2018-06-04T17:38:34.243Z,95790.62
2018-06-04T17:41:01.616Z,95788.05
2018-06-04T17:43:28.922Z,95789.06
2018-06-04T17:45:56.822Z,95791.48
2018-06-04T17:48:24.138Z,95786.85
2018-06-04T17:50:51.511Z,95787.47
2018-06-04T17:53:18.794Z,95784.39
2018-06-04T17:55:46.066Z,95782.26
2018-06-04T17:58:13.390Z,95777.34
2018-06-04T18:00:40.760Z,95777.87
2018-06-04T18:03:08.135Z,95772.08
2018-06-04T18:05:35.357Z,95769.52
2018-06-04T18:08:02.734Z,95770.78
2018-06-04T18:10:30.000Z,95775.11
2018-06-04T18:12:57.273Z,95768.73
2018-06-04T18:15:24.533Z,95774.49
2018-06-04T18:17:51.831Z,95777.92
2018-06-04T18:20:19.111Z,95778.59
2018-06-04T18:22:46.390Z,95782.55
2018-06-04T18:25:13.602Z,95788.32
2018-06-04T18:27:41.065Z,95792.04
2018-06-04T18:30:08.408Z,95793.97
2018-06-04T18:32:35.635Z,95806.30
2018-06-04T18:35:02.964Z,95803.41
2018-06-04T18:37:30.312Z,95810.49
2018-06-04T18:39:57.796Z,95812.61
2018-06-04T18:42:25.126Z,95816.89
2018-06-04T18:44:52.492Z,95819.75
2018-06-04T18:47:19.756Z,95823.42
2018-06-04T18:49:47.005Z,95822.04
2018-06-04T18:52:14.313Z,95824.00
2018-06-04T18:54:41.710Z,95818.34
2018-06-04T18:57:08.986Z,95826.61
2018-06-04T18:59:36.413Z,95830.67
2018-06-04T19:02:03.789Z,95828.64
2018-06-04T19:04:31.128Z,95837.80
2018-06-04T19:06:58.447Z,95839.50
2018-06-04T19:09:25.762Z,95829.69
2018-06-04T19:11:53.178Z,95833.42
2018-06-04T19:14:20.684Z,95839.37
2018-06-04T19:16:48.014Z,95844.51
2018-06-04T19:19:15.275Z,95854.75
2018-06-04T19:21:42.643Z,95855.98
2018-06-04T19:24:10.448Z,95867.70
2018-06-04T19:26:37.766Z,95867.47
2018-06-04T19:29:05.200Z,95871.87
2018-06-04T19:31:32.416Z,95879.67
2018-06-04T19:34:00.287Z,95887.83
2018-06-04T19:36:27.607Z,95886.96
2018-06-04T19:38:54.875Z,95895.78
2018-06-04T19:41:22.242Z,95896.27
2018-06-04T19:43:49.662Z,95905.31
2018-06-04T19:46:16.980Z,95914.73
2018-06-04T19:48:44.299Z,95909.47
2018-06-04T19:51:11.699Z,95917.22
2018-06-04T19:53:39.736Z,95917.42
2018-06-04T19:56:07.096Z,95920.56
2018-06-04T19:58:34.470Z,95919.51
2018-06-04T20:01:01.838Z,95919.42
2018-06-04T20:03:29.223Z,95918.99
2018-06-04T20:05:56.606Z,95919.21
2018-06-04T20:08:23.895Z,95923.97
2018-06-04T20:10:51.372Z,95918.96
2018-06-04T20:13:18.720Z,95922.21
2018-06-04T20:15:46.004Z,95922.70
2018-06-04T20:18:13.361Z,95927.81
2018-06-04T20:20:40.745Z,95928.63
2018-06-04T20:23:08.142Z,95926.28
2018-06-04T20:25:35.499Z,95931.44
2018-06-04T20:28:02.808Z,95933.19
2018-06-04T20:30:30.137Z,95935.62
2018-06-04T20:32:57.436Z,95930.23
2018-06-04T20:35:24.814Z,95923.90
2018-06-04T20:40:45.064Z,95924.61
2018-06-04T20:46:05.228Z,95925.63
2018-06-04T20:48:33.733Z,95940.38
2018-06-04T20:51:19.680Z,95938.29
2018-06-04T20:53:47.245Z,95931.78
2018-06-04T20:59:07.372Z,95933.34
2018-06-04T21:01:34.688Z,95932.45
2018-06-04T21:04:01.982Z,95937.77
2018-06-04T21:06:29.391Z,95937.09
2018-06-04T21:08:56.770Z,95939.78
2018-06-04T21:11:24.086Z,95938.84
2018-06-04T21:13:51.462Z,95935.82
2018-06-04T21:16:18.846Z,95939.45
2018-06-04T21:18:46.211Z,95941.38
2018-06-04T21:21:13.565Z,95935.23
2018-06-04T21:23:40.942Z,95939.21
2018-06-04T21:26:08.204Z,95937.89
2018-06-04T21:28:35.487Z,95940.77
2018-06-04T21:31:02.908Z,95941.47
2018-06-04T21:33:30.215Z,95939.72
2018-06-04T21:35:57.632Z,95943.67
2018-06-04T21:38:24.976Z,95939.55
2018-06-04T21:40:52.274Z,95941.48
2018-06-04T21:43:19.586Z,95936.38
2018-06-04T21:45:46.883Z,95939.95
2018-06-04T21:48:14.284Z,95944.11
2018-06-04T21:50:41.659Z,95938.72
2018-06-04T21:53:08.940Z,95935.92
2018-06-04T21:55:50.171Z,95942.64
2018-06-04T21:58:17.483Z,95939.44
2018-06-04T22:00:44.906Z,95935.52
2018-06-04T22:03:12.249Z,95927.02
2018-06-04T22:05:39.749Z,95935.84
2018-06-04T22:08:07.147Z,95936.73
2018-06-04T22:10:34.511Z,95934.59
2018-06-04T22:13:01.748Z,95931.80
2018-06-04T22:15:29.101Z,95928.83
2018-06-04T22:17:56.424Z,95931.34
2018-06-04T22:20:23.720Z,95934.19
2018-06-04T22:22:51.073Z,95936.66
2018-06-04T22:25:18.459Z,95937.75
2018-06-04T22:27:45.838Z,95943.38
2018-06-04T22:30:13.110Z,95941.46
2018-06-04T22:32:40.507Z,95932.21
2018-06-04T22:35:07.826Z,95931.58
2018-06-04T22:37:35.183Z,95926.77
2018-06-04T22:40:02.532Z,95922.69
2018-06-04T22:42:29.834Z,95923.96
2018-06-04T22:44:57.114Z,95926.45
2018-06-04T22:47:24.374Z,95922.53
2018-06-04T22:49:51.704Z,95919.77
2018-06-04T22:52:19.074Z,95919.94
2018-06-04T22:54:46.480Z,95921.11
2018-06-04T22:57:13.943Z,95921.28
2018-06-04T22:59:41.262Z,95917.45
2018-06-04T23:02:08.605Z,95913.40
2018-06-04T23:04:35.972Z,95916.09
2018-06-04T23:07:03.260Z,95910.43
2018-06-04T23:09:30.641Z,95910.27
2018-06-04T23:11:57.931Z,95910.02
2018-06-04T23:14:25.278Z,95910.40
2018-06-04T23:16:52.650Z,95909.94
2018-06-04T23:19:20.108Z,95907.78
2018-06-04T23:21:47.483Z,95911.49
2018-06-04T23:24:14.789Z,95910.84
2018-06-04T23:26:42.010Z,95909.05
2018-06-04T23:29:09.339Z,95912.50
2018-06-04T23:31:36.731Z,95907.90
2018-06-04T23:34:04.041Z,95909.91
2018-06-04T23:36:48.062Z,95799.08
2018-06-04T23:39:15.352Z,95901.70
2018-06-04T23:41:42.782Z,95896.73
2018-06-04T23:44:10.047Z,95902.42
2018-06-04T23:46:37.439Z,95905.06
2018-06-04T23:49:04.724Z,95903.74
2018-06-04T23:51:32.030Z,95897.81
2018-06-04T23:53:59.381Z,95861.97
2018-06-04T23:56:26.743Z,95890.17
2018-06-04T23:58:54.066Z,95895.30
